Time;durP1;ratioP1;P1;durP2;ratioP2;P2;SDS_P1;SDS_P2;PMS_P1;PMS_P2;Temp;Humidity;BMP_temperature;BMP_pressure;BME280_temperature;BME280_humidity;BME280_pressure;Samples;Min_cycle;Max_cycle;Signal;HPM_P1;HPM_P2
2022/01/26 00:06:01;;;;;;;103.22;32.15;;;3.40;99.90;;;;;;6277525;22;20027;-83
2022/01/26 00:08:27;;;;;;;98.72;29.95;;;3.40;99.90;;;;;;6277183;22;20015;-82
2022/01/26 00:10:53;;;;;;;96.97;32.50;;;3.40;99.90;;;;;;6277474;22;20044;-83
2022/01/26 00:13:19;;;;;;;96.20;32.55;;;3.40;99.90;;;;;;6277190;22;20014;-83
2022/01/26 00:15:45;;;;;;;104.18;32.78;;;3.40;99.90;;;;;;6250055;22;20016;-83
2022/01/26 00:18:10;;;;;;;96.40;30.60;;;3.40;99.90;;;;;;6249993;22;20022;-83
2022/01/26 00:20:43;;;;;;;95.13;30.80;;;3.40;99.90;;;;;;6277397;22;20012;-83
2022/01/26 00:38:37;;;;;;;93.70;32.63;;;3.40;99.90;;;;;;6277292;22;20031;-82
2022/01/26 00:41:09;;;;;;;98.68;30.67;;;3.40;99.90;;;;;;6277353;22;20087;-82
2022/01/26 00:43:36;;;;;;;92.72;31.33;;;3.40;99.90;;;;;;6277350;22;20016;-82
2022/01/26 00:46:06;;;;;;;91.32;31.63;;;3.40;99.90;;;;;;6276931;22;20423;-82
2022/01/26 00:48:33;;;;;;;89.93;29.83;;;3.40;99.90;;;;;;6277080;22;20015;-83
2022/01/26 00:51:02;;;;;;;93.70;32.63;;;3.40;99.90;;;;;;6277246;22;20008;-82
2022/01/26 00:53:51;;;;;;;102.07;32.53;;;3.40;99.90;;;;;;6249802;22;20016;-82
2022/01/26 00:56:17;;;;;;;89.78;32.05;;;3.40;99.90;;;;;;6277279;22;20086;-82
2022/01/26 00:58:43;;;;;;;93.50;31.95;;;3.40;99.90;;;;;;6277213;22;20019;-82
2022/01/26 01:01:10;;;;;;;97.13;32.92;;;3.40;99.90;;;;;;6276787;22;20435;-82
2022/01/26 01:03:40;;;;;;;105.75;34.33;;;3.40;99.90;;;;;;6277190;22;20011;-82
2022/01/26 01:08:45;;;;;;;99.93;32.58;;;3.40;99.90;;;;;;6276561;22;20061;-82
2022/01/26 01:11:11;;;;;;;94.43;31.15;;;3.40;99.90;;;;;;6277204;22;20039;-82
2022/01/26 01:13:39;;;;;;;98.32;33.40;;;3.40;99.90;;;;;;6277194;22;20320;-82
2022/01/26 01:16:08;;;;;;;102.07;32.92;;;3.40;99.90;;;;;;6276725;22;20022;-82
2022/01/26 01:32:14;;;;;;;92.93;32.63;;;3.40;99.90;;;;;;6242031;22;20034;-82
2022/01/26 01:34:40;;;;;;;105.13;33.72;;;3.40;99.90;;;;;;6251630;22;20020;-82
2022/01/26 01:37:09;;;;;;;102.65;33.10;;;3.40;99.90;;;;;;6278967;22;20340;-82
2022/01/26 01:39:38;;;;;;;90.45;31.67;;;3.40;99.90;;;;;;6278904;22;20027;-82
2022/01/26 01:42:06;;;;;;;97.03;33.35;;;3.40;99.90;;;;;;6251532;22;20081;-82
2022/01/26 01:44:31;;;;;;;98.78;32.72;;;3.40;99.90;;;;;;6278672;22;20340;-82
2022/01/26 01:46:57;;;;;;;105.65;31.67;;;3.40;99.90;;;;;;6278392;22;20466;-82
2022/01/26 01:49:24;;;;;;;95.82;33.97;;;3.50;99.90;;;;;;6278760;22;20491;-82
2022/01/26 01:51:57;;;;;;;99.72;33.28;;;3.50;99.90;;;;;;6278395;22;20374;-82
2022/01/26 01:54:24;;;;;;;97.60;33.10;;;3.40;99.90;;;;;;6251456;22;20378;-82
2022/01/26 01:56:55;;;;;;;112.25;34.83;;;3.40;99.90;;;;;;6251259;22;20431;-82
2022/01/26 01:59:26;;;;;;;88.78;33.05;;;3.40;99.90;;;;;;6251411;22;20045;-82
2022/01/26 02:01:52;;;;;;;98.60;33.47;;;3.40;99.90;;;;;;6251256;22;20332;-82
2022/01/26 02:04:18;;;;;;;106.20;37.17;;;3.50;99.90;;;;;;6278687;22;20035;-82
2022/01/26 02:06:43;;;;;;;104.88;35.70;;;3.40;99.90;;;;;;6278564;22;20347;-82
2022/01/26 02:09:11;;;;;;;91.82;34.45;;;3.50;99.90;;;;;;6251074;22;20472;-82
2022/01/26 02:11:51;;;;;;;96.80;34.08;;;3.40;99.90;;;;;;6278606;22;20047;-82
2022/01/26 02:14:32;;;;;;;99.03;36.75;;;3.40;99.90;;;;;;6278562;22;20011;-82
2022/01/26 02:56:01;;;;;;;92.55;35.90;;;3.50;99.90;;;;;;6250650;22;20031;-82
2022/01/26 03:06:46;;;;;;;91.57;36.08;;;3.50;99.90;;;;;;6241900;22;20335;-82
2022/01/26 03:09:15;;;;;;;90.45;33.78;;;3.50;99.90;;;;;;6277545;22;20020;-82
2022/01/26 03:11:44;;;;;;;91.55;34.83;;;3.50;99.90;;;;;;6278004;22;20020;-82
2022/01/26 03:16:51;;;;;;;82.15;36.85;;;3.50;99.90;;;;;;6277986;22;20020;-82
2022/01/26 03:30:02;;;;;;;78.53;31.50;;;3.50;99.90;;;;;;6277523;22;20478;-82
2022/01/26 03:32:59;;;;;;;78.90;34.10;;;3.50;99.90;;;;;;6277916;22;20031;-82
2022/01/26 03:35:42;;;;;;;85.03;33.35;;;3.50;99.90;;;;;;6250316;22;20374;-82
2022/01/26 03:38:17;;;;;;;81.28;33.80;;;3.50;99.90;;;;;;6250368;22;20011;-82
2022/01/26 03:40:43;;;;;;;80.25;34.05;;;3.50;99.90;;;;;;6277832;22;20039;-82
2022/01/26 03:43:09;;;;;;;85.57;34.38;;;3.50;99.90;;;;;;6250305;22;20023;-82
2022/01/26 03:45:35;;;;;;;78.15;32.20;;;3.50;99.90;;;;;;6277668;22;20020;-82
2022/01/26 03:48:00;;;;;;;81.60;33.20;;;3.50;99.90;;;;;;6277545;22;20026;-82
2022/01/26 03:50:27;;;;;;;75.88;30.88;;;3.50;99.90;;;;;;6277298;22;20051;-82
2022/01/26 03:52:52;;;;;;;80.38;35.63;;;3.40;99.90;;;;;;6277745;22;20019;-83
2022/01/26 03:55:18;;;;;;;79.90;32.60;;;3.40;99.90;;;;;;6277482;22;20015;-82
2022/01/26 03:57:44;;;;;;;84.93;34.17;;;3.40;99.90;;;;;;6277554;22;20378;-82
2022/01/26 04:00:10;;;;;;;75.32;34.03;;;3.40;99.90;;;;;;6277585;22;20087;-82
2022/01/26 04:02:36;;;;;;;80.28;33.50;;;3.40;99.90;;;;;;6250107;22;20110;-82
2022/01/26 04:05:06;;;;;;;80.28;33.45;;;3.40;99.90;;;;;;6277578;22;20447;-82
2022/01/26 04:07:32;;;;;;;78.50;33.03;;;3.30;99.90;;;;;;6277040;22;20443;-82
2022/01/26 04:10:07;;;;;;;77.28;35.28;;;3.30;99.90;;;;;;6277030;22;20012;-82
2022/01/26 04:12:35;;;;;;;73.30;32.78;;;3.30;99.90;;;;;;6277491;22;20020;-83
2022/01/26 04:15:10;;;;;;;69.47;31.38;;;3.30;99.90;;;;;;6277503;22;20035;-83
2022/01/26 04:17:35;;;;;;;73.93;32.28;;;3.30;99.90;;;;;;6250110;22;20084;-83
2022/01/26 04:20:01;;;;;;;71.80;31.50;;;3.20;99.90;;;;;;6277474;22;20455;-83
2022/01/26 04:22:35;;;;;;;65.82;28.65;;;3.30;99.90;;;;;;6277397;22;20016;-83
2022/01/26 04:25:02;;;;;;;71.78;30.60;;;3.30;99.90;;;;;;6277404;22;20105;-83
2022/01/26 04:27:37;;;;;;;70.65;30.35;;;3.30;99.90;;;;;;6276936;22;20074;-83
2022/01/26 04:30:03;;;;;;;67.35;28.50;;;3.30;99.90;;;;;;6277424;22;20087;-82
2022/01/26 04:32:29;;;;;;;70.28;29.65;;;3.30;99.90;;;;;;6277368;22;20012;-82
2022/01/26 04:34:56;;;;;;;75.60;29.98;;;3.30;99.90;;;;;;6277483;22;20392;-82
2022/01/26 04:38:05;;;;;;;77.05;30.92;;;3.30;99.90;;;;;;6277323;22;20038;-82
2022/01/26 04:40:30;;;;;;;69.78;28.17;;;3.30;99.90;;;;;;6276778;22;20046;-82
2022/01/26 04:43:02;;;;;;;72.28;29.83;;;3.30;99.90;;;;;;6277351;22;20151;-82
2022/01/26 04:45:28;;;;;;;72.83;29.63;;;3.30;99.90;;;;;;6277394;22;20031;-82
2022/01/26 04:47:54;;;;;;;83.05;31.38;;;3.20;99.90;;;;;;6276882;22;20577;-82
2022/01/26 04:50:19;;;;;;;71.40;30.80;;;3.30;99.90;;;;;;6277410;22;20062;-82
2022/01/26 04:52:46;;;;;;;76.00;32.78;;;3.30;99.90;;;;;;6277265;22;20050;-82
2022/01/26 04:55:12;;;;;;;70.85;29.42;;;3.20;99.90;;;;;;6277945;22;20082;-82
2022/01/26 04:57:38;;;;;;;73.55;29.70;;;3.30;99.90;;;;;;6277209;22;20016;-82
2022/01/26 05:00:06;;;;;;;78.30;31.48;;;3.30;99.90;;;;;;6276910;22;20026;-82
2022/01/26 05:02:32;;;;;;;66.97;29.77;;;3.30;99.90;;;;;;6277148;22;20015;-82
2022/01/26 05:04:57;;;;;;;74.47;30.58;;;3.20;99.90;;;;;;6277139;22;20027;-82
2022/01/26 05:07:23;;;;;;;74.78;31.58;;;3.30;99.90;;;;;;6277351;22;20026;-82
2022/01/26 05:09:49;;;;;;;71.85;30.33;;;3.20;99.90;;;;;;6251617;22;20024;-82
2022/01/26 05:12:15;;;;;;;72.35;28.52;;;3.20;99.90;;;;;;6279176;22;20034;-82
2022/01/26 05:14:43;;;;;;;72.25;29.45;;;3.20;99.90;;;;;;6279183;22;20015;-82
2022/01/26 05:17:09;;;;;;;65.55;27.05;;;3.20;99.90;;;;;;6251807;22;20020;-82
2022/01/26 05:19:35;;;;;;;83.15;29.88;;;3.20;99.90;;;;;;6279126;22;20012;-82
2022/01/26 05:22:00;;;;;;;71.78;27.23;;;3.20;99.90;;;;;;6279130;22;20030;-82
2022/01/26 05:24:26;;;;;;;77.78;28.20;;;3.20;99.90;;;;;;6251725;22;20339;-82
2022/01/26 05:26:52;;;;;;;81.03;27.00;;;3.20;99.90;;;;;;6278997;22;20427;-82
2022/01/26 05:29:17;;;;;;;73.85;26.90;;;3.20;99.90;;;;;;6279056;22;20486;-82
2022/01/26 05:31:43;;;;;;;72.97;25.85;;;3.20;99.90;;;;;;6251722;22;20086;-82
2022/01/26 05:34:08;;;;;;;72.28;27.00;;;3.20;99.90;;;;;;6278538;22;20043;-82
2022/01/26 05:36:34;;;;;;;74.15;26.88;;;3.20;99.90;;;;;;6278929;22;20016;-82
2022/01/26 05:39:00;;;;;;;76.60;28.38;;;3.20;99.90;;;;;;6278645;22;20081;-82
2022/01/26 05:41:25;;;;;;;71.57;26.92;;;3.20;99.90;;;;;;6278902;22;20016;-81
2022/01/26 05:43:51;;;;;;;73.97;27.52;;;3.10;99.90;;;;;;6278904;22;20324;-81
2022/01/26 05:46:26;;;;;;;76.53;28.83;;;3.10;99.90;;;;;;6278917;22;20022;-81
2022/01/26 05:48:52;;;;;;;68.55;25.95;;;3.10;99.90;;;;;;6278343;22;20454;-81
2022/01/26 05:51:18;;;;;;;72.93;28.20;;;3.20;99.90;;;;;;6278830;22;20018;-82
2022/01/26 05:53:44;;;;;;;75.68;27.85;;;3.10;99.90;;;;;;6278749;22;20095;-82
2022/01/26 05:56:10;;;;;;;70.53;26.60;;;3.20;99.90;;;;;;6251286;22;20016;-82
2022/01/26 05:58:36;;;;;;;81.28;27.27;;;3.20;99.90;;;;;;6278688;22;20016;-82
2022/01/26 06:01:03;;;;;;;83.45;27.10;;;3.10;99.90;;;;;;6251359;22;20312;-82
2022/01/26 06:03:29;;;;;;;80.15;27.00;;;3.20;99.90;;;;;;6278704;22;20016;-82
2022/01/26 06:05:55;;;;;;;72.07;27.00;;;3.10;99.90;;;;;;6278684;22;20344;-82
2022/01/26 06:08:22;;;;;;;82.65;28.25;;;3.10;99.90;;;;;;6278259;22;20015;-82
2022/01/26 06:10:49;;;;;;;82.97;28.95;;;3.20;99.90;;;;;;6251227;22;20024;-82
2022/01/26 06:13:15;;;;;;;76.32;28.27;;;3.20;99.90;;;;;;6251260;22;20027;-82
2022/01/26 06:15:41;;;;;;;81.53;28.65;;;3.20;99.90;;;;;;6278248;22;20062;-82
2022/01/26 06:18:08;;;;;;;84.40;29.10;;;3.20;99.90;;;;;;6278419;22;20013;-82
2022/01/26 06:20:34;;;;;;;80.78;27.02;;;3.20;99.90;;;;;;6251130;22;20019;-82
2022/01/26 06:22:59;;;;;;;82.88;29.67;;;3.20;99.90;;;;;;6278566;22;20018;-82
2022/01/26 06:25:27;;;;;;;79.90;29.92;;;3.20;99.90;;;;;;6278504;22;20011;-82
2022/01/26 06:27:55;;;;;;;79.40;29.52;;;3.30;99.90;;;;;;6278109;22;20447;-82
2022/01/26 06:30:22;;;;;;;88.75;30.80;;;3.20;99.90;;;;;;6278186;22;20015;-82
2022/01/26 06:32:49;;;;;;;76.40;29.42;;;3.30;99.90;;;;;;6277990;22;20478;-82
2022/01/26 06:35:14;;;;;;;82.45;32.00;;;3.30;99.90;;;;;;6250924;22;20041;-82
2022/01/26 06:37:40;;;;;;;83.05;31.92;;;3.30;99.90;;;;;;6278302;22;20017;-82
2022/01/26 06:40:06;;;;;;;87.30;33.35;;;3.30;99.90;;;;;;6278387;22;20087;-82
2022/01/26 06:42:40;;;;;;;77.45;31.02;;;3.30;99.90;;;;;;6251047;22;20015;-82
2022/01/26 06:45:16;;;;;;;79.35;31.77;;;3.40;99.90;;;;;;6278166;22;20015;-83
2022/01/26 06:48:13;;;;;;;80.82;31.17;;;3.40;99.90;;;;;;6278540;22;20012;-82
2022/01/26 06:50:40;;;;;;;69.20;29.73;;;3.40;99.90;;;;;;6250777;22;20351;-82
2022/01/26 06:53:05;;;;;;;83.13;32.13;;;3.40;99.90;;;;;;6278168;22;20050;-82
2022/01/26 06:55:31;;;;;;;68.28;28.42;;;3.40;99.90;;;;;;6278112;22;20011;-82
2022/01/26 06:57:57;;;;;;;77.30;30.80;;;3.50;99.90;;;;;;6250666;22;20022;-82
2022/01/26 07:00:22;;;;;;;77.32;30.63;;;3.50;99.90;;;;;;6277727;22;20179;-82
2022/01/26 07:02:48;;;;;;;71.75;28.92;;;3.50;99.90;;;;;;6277813;22;20482;-82
2022/01/26 07:05:14;;;;;;;75.22;30.98;;;3.50;99.90;;;;;;6278155;22;20046;-82
2022/01/26 07:07:41;;;;;;;82.72;33.28;;;3.50;99.90;;;;;;6277679;22;20390;-82
2022/01/26 07:10:07;;;;;;;79.05;32.03;;;3.50;99.90;;;;;;6277477;22;20051;-82
2022/01/26 07:12:34;;;;;;;81.07;31.67;;;3.40;99.90;;;;;;6277727;22;20094;-82
2022/01/26 07:23:09;;;;;;;78.78;30.42;;;3.50;99.90;;;;;;6250484;22;20351;-82
2022/01/26 07:25:36;;;;;;;80.70;32.95;;;3.50;99.90;;;;;;6277873;22;20022;-83
2022/01/26 07:28:04;;;;;;;82.88;30.98;;;3.50;99.90;;;;;;6277800;22;20019;-82
2022/01/26 07:30:36;;;;;;;79.47;30.20;;;3.50;99.90;;;;;;6277545;22;20018;-82
2022/01/26 07:33:06;;;;;;;72.30;30.47;;;3.50;99.90;;;;;;6277842;22;20021;-82
2022/01/26 07:35:32;;;;;;;70.32;31.70;;;3.50;99.90;;;;;;6277801;22;20246;-82
2022/01/26 07:37:59;;;;;;;74.35;30.02;;;3.50;99.90;;;;;;6277791;22;20023;-82
2022/01/26 07:40:25;;;;;;;72.13;29.77;;;3.50;99.90;;;;;;6277744;22;20016;-82
2022/01/26 07:42:51;;;;;;;73.97;29.42;;;3.50;99.90;;;;;;6277388;22;20509;-82
2022/01/26 07:45:18;;;;;;;81.20;31.27;;;3.50;99.90;;;;;;6277366;22;20470;-82
2022/01/26 07:47:45;;;;;;;72.63;29.13;;;3.60;99.90;;;;;;6250093;22;20055;-82
2022/01/26 07:50:13;;;;;;;69.38;28.98;;;3.50;99.90;;;;;;6277271;22;20459;-82
2022/01/26 07:52:41;;;;;;;71.72;28.42;;;3.60;99.90;;;;;;6250121;22;20024;-82
2022/01/26 07:55:08;;;;;;;71.43;26.42;;;3.60;99.90;;;;;;6249944;22;20016;-82
2022/01/26 07:57:34;;;;;;;68.68;26.73;;;3.50;99.90;;;;;;6277210;22;20022;-83
2022/01/26 08:00:00;;;;;;;71.63;27.42;;;3.60;99.90;;;;;;6249765;22;20016;-83
2022/01/26 08:02:26;;;;;;;68.25;27.13;;;3.60;99.90;;;;;;6250211;22;20023;-82
2022/01/26 08:04:51;;;;;;;73.22;27.02;;;3.60;99.90;;;;;;6276271;22;20011;-82
2022/01/26 08:07:17;;;;;;;64.53;26.40;;;3.60;99.90;;;;;;6276294;22;20093;-82
2022/01/26 08:09:46;;;;;;;66.57;27.30;;;3.60;99.90;;;;;;6275609;22;20026;-82
2022/01/26 08:12:12;;;;;;;61.35;26.50;;;3.60;99.90;;;;;;6249162;22;20027;-81
2022/01/26 08:14:38;;;;;;;69.90;26.08;;;3.60;99.90;;;;;;6249898;22;20055;-81
2022/01/26 08:17:05;;;;;;;76.65;27.52;;;3.60;99.90;;;;;;6249953;22;20466;-81
2022/01/26 08:19:31;;;;;;;69.78;27.67;;;3.60;99.90;;;;;;6277261;22;20069;-81
2022/01/26 08:22:00;;;;;;;70.68;28.08;;;3.70;99.90;;;;;;6277264;22;20012;-81
2022/01/26 08:24:26;;;;;;;68.53;27.00;;;3.70;99.90;;;;;;6276801;22;20016;-81
2022/01/26 08:26:54;;;;;;;70.70;26.55;;;3.70;99.90;;;;;;6276705;22;20447;-82
2022/01/26 08:29:28;;;;;;;63.90;28.38;;;3.70;99.90;;;;;;6248603;22;20076;-79
2022/01/26 08:31:54;;;;;;;71.70;28.38;;;3.70;99.90;;;;;;6275492;22;20020;-82
2022/01/26 08:34:19;;;;;;;69.32;27.25;;;3.70;99.90;;;;;;6276922;22;20138;-81
2022/01/26 08:36:46;;;;;;;69.55;27.77;;;3.70;99.90;;;;;;6276904;22;20027;-82
2022/01/26 08:39:12;;;;;;;68.97;26.95;;;3.70;99.90;;;;;;6276519;22;20015;-81
2022/01/26 08:41:37;;;;;;;66.53;27.08;;;3.70;99.90;;;;;;6276874;22;20023;-81
2022/01/26 08:44:03;;;;;;;67.95;26.67;;;3.70;99.90;;;;;;6278488;22;20050;-80
2022/01/26 08:46:29;;;;;;;72.00;27.50;;;3.70;99.90;;;;;;6278943;22;20019;-80
2022/01/26 08:48:56;;;;;;;63.28;26.48;;;3.80;99.90;;;;;;6278559;22;20046;-80
2022/01/26 08:51:22;;;;;;;69.85;28.00;;;3.80;99.90;;;;;;6278715;22;20094;-81
2022/01/26 08:53:47;;;;;;;69.32;27.10;;;3.80;99.90;;;;;;6279023;22;20047;-82
2022/01/26 08:56:14;;;;;;;65.53;27.35;;;3.80;99.90;;;;;;6278971;22;20365;-81
2022/01/26 08:58:39;;;;;;;73.68;26.98;;;3.80;99.90;;;;;;6278887;22;20018;-81
2022/01/26 09:01:05;;;;;;;66.93;26.67;;;3.80;99.90;;;;;;6251647;22;20047;-82
2022/01/26 09:03:37;;;;;;;68.97;26.77;;;3.80;99.90;;;;;;6278564;22;20027;-81
2022/01/26 09:06:04;;;;;;;77.32;28.63;;;3.80;99.90;;;;;;6251286;22;20408;-82
2022/01/26 09:08:30;;;;;;;72.30;28.75;;;3.80;99.90;;;;;;6278376;22;20016;-79
2022/01/26 09:11:00;;;;;;;67.95;27.33;;;3.80;99.90;;;;;;6278590;22;20030;-83
2022/01/26 09:13:26;;;;;;;77.18;27.52;;;3.90;99.90;;;;;;6278577;22;20012;-81
2022/01/26 09:15:52;;;;;;;78.85;28.30;;;3.90;99.90;;;;;;6251277;22;20335;-82
2022/01/26 09:18:30;;;;;;;65.85;24.05;;;3.90;99.90;;;;;;6278354;22;20023;-81
2022/01/26 09:20:59;;;;;;;66.90;27.58;;;3.90;99.90;;;;;;6250037;22;20012;-81
2022/01/26 09:23:24;;;;;;;63.70;24.25;;;4.00;99.90;;;;;;6251128;22;20049;-81
2022/01/26 09:25:50;;;;;;;74.80;24.10;;;4.00;99.90;;;;;;6278387;22;20011;-81
2022/01/26 09:28:16;;;;;;;56.20;22.50;;;4.00;99.90;;;;;;6250902;22;20355;-82
2022/01/26 09:30:41;;;;;;;63.50;22.95;;;4.00;99.90;;;;;;6278649;22;20011;-82
2022/01/26 09:33:07;;;;;;;51.05;21.65;;;4.10;99.90;;;;;;6251314;22;20020;-82
2022/01/26 09:35:33;;;;;;;59.85;22.63;;;4.10;99.90;;;;;;6250998;22;20097;-81
2022/01/26 09:37:58;;;;;;;60.03;22.65;;;4.10;99.90;;;;;;6278780;22;20022;-82
2022/01/26 09:40:24;;;;;;;64.53;23.40;;;4.10;99.90;;;;;;6278757;22;20090;-82
2022/01/26 09:42:51;;;;;;;66.13;23.08;;;4.20;99.90;;;;;;6278340;22;20019;-83
2022/01/26 09:45:18;;;;;;;60.63;23.33;;;4.10;99.90;;;;;;6278339;22;20328;-82
2022/01/26 09:47:46;;;;;;;59.88;22.63;;;4.20;99.90;;;;;;6278705;22;20019;-82
2022/01/26 09:50:12;;;;;;;63.92;22.73;;;4.20;99.90;;;;;;6278697;22;20012;-82
2022/01/26 09:52:44;;;;;;;52.55;19.85;;;4.20;99.90;;;;;;6278567;22;20087;-82
2022/01/26 09:55:10;;;;;;;62.22;23.10;;;4.30;99.90;;;;;;6251019;22;20335;-82
2022/01/26 09:57:38;;;;;;;59.63;22.27;;;4.20;99.90;;;;;;6278537;22;20011;-82
2022/01/26 10:00:06;;;;;;;58.22;22.92;;;4.20;99.90;;;;;;6278618;22;20023;-82
2022/01/26 10:02:35;;;;;;;55.67;22.00;;;4.20;99.90;;;;;;6278606;22;20011;-82
2022/01/26 10:05:06;;;;;;;57.47;21.85;;;4.20;99.90;;;;;;6278226;22;20414;-82
2022/01/26 10:07:53;;;;;;;54.40;22.50;;;4.20;99.90;;;;;;6278514;22;20007;-82
2022/01/26 10:15:25;;;;;;;63.50;23.17;;;4.20;99.90;;;;;;6217238;23;20024;-82
2022/01/26 10:18:56;;;;;;;60.75;21.63;;;4.20;99.90;;;;;;6170921;23;20170;-83
2022/01/26 10:21:22;;;;;;;;;;;4.20;99.90;;;;;;6217780;23;20028;-82
2022/01/26 10:23:48;;;;;;;53.63;21.52;;;4.30;99.90;;;;;;6215483;23;19920;-82
2022/01/26 10:26:16;;;;;;;59.63;21.83;;;4.20;99.90;;;;;;6217351;23;20060;-82
2022/01/26 10:28:44;;;;;;;55.90;20.58;;;4.30;99.90;;;;;;6217262;23;20044;-82
2022/01/26 10:31:15;;;;;;;58.80;21.10;;;4.30;99.90;;;;;;6217230;23;20017;-82
2022/01/26 10:34:02;;;;;;;53.25;20.55;;;4.30;99.90;;;;;;6217257;23;20012;-82
2022/01/26 10:36:39;;;;;;;50.50;21.00;;;4.30;99.90;;;;;;6217101;23;20016;-82
2022/01/26 10:39:08;;;;;;;55.10;21.05;;;4.30;99.90;;;;;;6217157;23;20233;-82
2022/01/26 10:41:35;;;;;;;54.38;21.73;;;4.30;99.90;;;;;;6217176;23;20028;-83
2022/01/26 10:44:03;;;;;;;57.80;22.00;;;4.30;99.90;;;;;;6217210;23;20016;-82
2022/01/26 10:46:33;;;;;;;55.28;21.33;;;4.30;99.90;;;;;;6217115;23;20016;-82
2022/01/26 10:49:43;;;;;;;58.67;21.83;;;4.30;99.90;;;;;;6216638;23;20404;-82
2022/01/26 10:52:19;;;;;;;60.28;20.42;;;4.30;99.90;;;;;;6211109;23;20017;-83
2022/01/26 10:54:46;;;;;;;53.15;21.63;;;4.30;99.90;;;;;;6217166;23;20048;-82
2022/01/26 10:57:12;;;;;;;57.08;22.33;;;4.30;99.90;;;;;;6217028;23;20016;-82
2022/01/26 10:59:44;;;;;;;51.17;20.08;;;4.30;99.90;;;;;;6204499;23;20013;-82
2022/01/26 11:02:11;;;;;;;56.28;20.95;;;4.40;99.90;;;;;;6217062;23;20020;-83
2022/01/26 11:04:40;;;;;;;53.78;20.48;;;4.30;99.90;;;;;;6216450;23;20032;-82
2022/01/26 11:07:12;;;;;;;56.58;22.35;;;4.40;99.90;;;;;;6209756;23;20464;-82
2022/01/26 11:09:46;;;;;;;56.92;19.65;;;4.40;99.90;;;;;;6257645;22;20020;-82
2022/01/26 11:12:13;;;;;;;56.80;20.95;;;4.40;99.90;;;;;;6277935;22;20015;-83
2022/01/26 11:14:41;;;;;;;54.20;20.70;;;4.40;99.90;;;;;;6277835;22;20055;-82
2022/01/26 11:17:09;;;;;;;49.53;19.02;;;4.40;99.90;;;;;;6250468;22;20042;-82
2022/01/26 11:19:43;;;;;;;51.80;20.98;;;4.40;99.90;;;;;;6277817;22;20043;-82
2022/01/26 11:22:11;;;;;;;54.25;20.25;;;4.50;99.90;;;;;;6277810;22;20012;-82
2022/01/26 11:24:46;;;;;;;64.47;21.65;;;4.50;99.90;;;;;;6250298;22;20024;-82
2022/01/26 11:27:14;;;;;;;52.40;19.52;;;4.50;99.90;;;;;;6277643;22;20008;-82
2022/01/26 11:29:45;;;;;;;49.72;19.80;;;4.50;99.90;;;;;;6250279;22;20027;-82
2022/01/26 11:32:18;;;;;;;65.20;22.63;;;4.50;99.90;;;;;;6250289;22;20015;-82
2022/01/26 11:34:51;;;;;;;62.88;23.58;;;4.50;99.90;;;;;;6277633;22;20116;-82
2022/01/26 11:37:37;;;;;;;52.33;21.33;;;4.50;99.90;;;;;;6277600;22;20069;-82
2022/01/26 11:45:25;;;;;;;55.22;21.52;;;4.60;99.90;;;;;;6250019;22;20082;-83
2022/01/26 11:48:24;;;;;;;55.10;22.02;;;4.60;99.90;;;;;;6277453;22;20023;-83
2022/01/26 11:51:01;;;;;;;57.80;22.23;;;4.60;99.90;;;;;;6250011;22;20023;-83
2022/01/26 11:53:27;;;;;;;61.72;22.55;;;4.60;99.90;;;;;;6277420;22;20078;-83
2022/01/26 11:56:02;;;;;;;65.85;24.02;;;4.60;99.90;;;;;;6277088;22;20012;-83
2022/01/26 11:58:41;;;;;;;57.25;21.13;;;4.60;99.90;;;;;;6249993;22;20019;-82
2022/01/26 12:04:00;;;;;;;65.72;23.35;;;4.70;99.90;;;;;;6277430;22;20020;-82
2022/01/26 12:06:34;;;;;;;56.85;22.67;;;4.70;99.90;;;;;;6277397;22;20011;-82
2022/01/26 12:09:01;;;;;;;63.17;22.50;;;4.80;99.90;;;;;;6276980;22;20466;-82
2022/01/26 12:11:29;;;;;;;71.03;24.83;;;4.80;99.90;;;;;;6249912;22;20020;-82
2022/01/26 12:14:06;;;;;;;68.28;23.77;;;4.80;99.90;;;;;;6276889;22;20346;-82
2022/01/26 12:16:36;;;;;;;62.45;22.23;;;4.90;99.90;;;;;;6277211;22;20012;-82
2022/01/26 12:19:23;;;;;;;54.65;22.15;;;4.80;99.90;;;;;;6250783;22;20100;-82
2022/01/26 12:43:38;;;;;;;61.50;21.75;;;4.90;99.90;;;;;;6277133;22;20030;-83
2022/01/26 12:46:16;;;;;;;56.22;20.88;;;5.00;99.90;;;;;;6277067;22;20011;-83
2022/01/26 12:48:57;;;;;;;53.67;20.65;;;5.00;99.90;;;;;;6277149;22;20019;-82
2022/01/26 12:51:24;;;;;;;58.70;23.05;;;5.10;99.90;;;;;;6276871;22;20020;-83
2022/01/26 12:53:54;;;;;;;57.55;19.63;;;5.10;99.90;;;;;;6249691;22;20023;-83
2022/01/26 12:56:24;;;;;;;51.90;19.92;;;5.10;99.90;;;;;;6277108;22;20019;-82
2022/01/26 12:59:08;;;;;;;54.08;20.85;;;5.10;99.90;;;;;;6249640;22;20098;-82
2022/01/26 13:01:37;;;;;;;48.70;21.00;;;5.10;99.90;;;;;;6249766;22;20083;-83
2022/01/26 13:04:05;;;;;;;53.10;20.38;;;5.10;99.90;;;;;;6276768;22;20443;-83
2022/01/26 13:06:38;;;;;;;51.08;19.02;;;5.20;99.90;;;;;;6276637;22;20026;-82
2022/01/26 13:09:15;;;;;;;48.05;19.67;;;5.20;99.90;;;;;;6276701;22;20019;-83
2022/01/26 13:11:41;;;;;;;44.25;17.85;;;5.20;99.90;;;;;;6249661;22;20439;-83
2022/01/26 13:19:39;;;;;;;43.97;18.45;;;5.30;99.90;;;;;;6249559;22;20047;-83
2022/01/26 13:25:09;;;;;;;48.58;18.10;;;5.30;99.90;;;;;;6277051;22;20086;-83
2022/01/26 13:27:52;;;;;;;46.60;16.42;;;5.40;99.90;;;;;;6249499;22;20019;-83
2022/01/26 13:41:31;;;;;;;45.05;16.10;;;5.50;99.90;;;;;;6278382;22;20458;-83
2022/01/26 14:00:15;;;;;;;42.90;18.15;;;5.60;99.90;;;;;;6195644;22;20021;-83
2022/01/26 14:02:41;;;;;;;45.67;17.88;;;5.60;99.90;;;;;;6278573;22;20069;-83
2022/01/26 14:05:07;;;;;;;45.08;18.95;;;5.60;99.90;;;;;;6278534;22;20011;-83
2022/01/26 14:07:33;;;;;;;48.58;19.83;;;5.60;99.90;;;;;;6251159;22;20015;-82
2022/01/26 14:09:59;;;;;;;51.15;21.15;;;5.50;99.90;;;;;;6278035;22;20087;-83
2022/01/26 14:12:29;;;;;;;51.35;19.33;;;5.50;99.90;;;;;;6251000;22;20034;-83
2022/01/26 14:14:57;;;;;;;41.63;17.17;;;5.50;99.90;;;;;;6251086;22;20022;-83
2022/01/26 14:17:37;;;;;;;44.33;18.73;;;5.50;99.90;;;;;;6250888;22;20102;-82
2022/01/26 14:23:17;;;;;;;48.38;16.73;;;5.50;99.90;;;;;;6278355;22;20051;-82
2022/01/26 14:25:31;;;;;;;38.45;16.60;;;5.50;99.90;;;;;;6265534;22;20043;-82
2022/01/26 14:28:04;;;;;;;45.00;18.40;;;5.50;99.90;;;;;;6278314;22;20016;-82
2022/01/26 14:54:57;;;;;;;40.15;16.27;;;5.60;99.90;;;;;;6226676;22;20081;-88
2022/01/26 15:40:57;;;;;;;32.45;14.48;;;5.70;99.90;;;;;;6250095;22;20026;-83
2022/01/26 15:49:13;;;;;;;31.55;13.45;;;5.70;99.90;;;;;;6277410;22;20089;-83
2022/01/26 16:05:57;;;;;;;35.15;15.02;;;5.70;99.90;;;;;;6250071;22;20022;-83
2022/01/26 16:21:22;;;;;;;37.50;14.48;;;5.70;99.90;;;;;;6277073;22;20347;-83
2022/01/26 17:47:57;;;;;;;39.65;16.00;;;5.80;99.90;;;;;;6278437;22;20478;-81
2022/01/26 18:49:18;;;;;;;41.25;16.50;;;5.80;99.90;;;;;;6250754;22;20050;-82
2022/01/26 18:51:52;;;;;;;38.10;15.70;;;5.80;99.90;;;;;;6250932;22;20335;-83
2022/01/26 18:54:29;;;;;;;35.67;15.30;;;5.80;99.90;;;;;;6250926;22;20115;-84
2022/01/26 18:56:57;;;;;;;38.85;16.90;;;5.80;99.90;;;;;;6251553;22;20043;-82
2022/01/26 18:59:23;;;;;;;42.92;16.50;;;5.80;99.90;;;;;;6250763;22;20012;-82
2022/01/26 19:01:52;;;;;;;34.90;17.40;;;5.80;99.90;;;;;;6278170;22;20086;-82
2022/01/26 19:04:24;;;;;;;37.63;17.02;;;5.80;99.90;;;;;;6277833;22;20027;-82
2022/01/26 19:06:52;;;;;;;36.58;16.85;;;5.80;99.90;;;;;;6250696;22;20467;-82
2022/01/26 19:09:23;;;;;;;38.13;16.05;;;5.90;99.90;;;;;;6250926;22;20027;-82
2022/01/26 19:11:49;;;;;;;37.03;16.08;;;5.90;99.90;;;;;;6250612;22;20023;-81
2022/01/26 19:14:14;;;;;;;41.42;17.23;;;5.90;99.90;;;;;;6250615;22;20346;-81
2022/01/26 19:16:47;;;;;;;37.45;16.70;;;5.90;99.90;;;;;;6250607;22;20064;-81
2022/01/26 19:26:57;;;;;;;29.95;14.60;;;5.90;99.90;;;;;;6250161;22;20020;-82
2022/01/26 19:52:57;;;;;;;30.40;15.02;;;6.00;99.90;;;;;;6250181;22;20050;-82
2022/01/26 19:55:24;;;;;;;31.60;15.00;;;6.00;99.90;;;;;;6277275;22;20019;-82
2022/01/26 19:57:51;;;;;;;32.90;15.65;;;6.00;99.90;;;;;;6250180;22;20043;-83
2022/01/26 20:00:17;;;;;;;31.40;15.70;;;6.00;99.90;;;;;;6277668;22;20098;-83
2022/01/26 20:02:43;;;;;;;37.30;16.60;;;6.00;99.90;;;;;;6250204;22;20043;-83
2022/01/26 20:05:14;;;;;;;37.45;15.68;;;6.00;99.90;;;;;;6277511;22;20043;-83
2022/01/26 20:07:40;;;;;;;32.30;15.50;;;6.10;99.90;;;;;;6277517;22;20051;-83
2022/01/26 20:10:07;;;;;;;34.55;16.80;;;6.10;99.90;;;;;;6249889;22;20070;-83
2022/01/26 20:12:46;;;;;;;34.85;14.20;;;6.00;99.90;;;;;;6250185;22;20015;-83
2022/01/26 20:15:12;;;;;;;44.85;16.35;;;6.00;99.90;;;;;;6250158;22;20022;-83
2022/01/26 20:17:40;;;;;;;34.05;16.27;;;6.10;99.90;;;;;;6277547;22;20086;-82
2022/01/26 20:20:06;;;;;;;28.35;13.80;;;6.10;99.90;;;;;;6250072;22;20428;-82